createdAt,value
2023-05-02T00:05:16.023Z,16.80
2023-05-02T00:20:20.593Z,16.90
2023-05-02T00:35:24.976Z,16.30
2023-05-02T00:50:31.778Z,16.20
2023-05-02T01:05:48.133Z,16.00
2023-05-02T01:20:58.472Z,16.00
2023-05-02T01:36:04.740Z,15.80
2023-05-02T01:51:10.692Z,16.10
2023-05-02T02:06:15.929Z,15.20
2023-05-02T02:21:23.780Z,15.90
2023-05-02T02:36:34.107Z,15.80
2023-05-02T02:51:44.368Z,15.20
2023-05-02T03:06:49.056Z,15.00
2023-05-02T03:21:54.595Z,15.40
2023-05-02T03:36:59.073Z,15.70
2023-05-02T03:52:04.089Z,15.40
2023-05-02T04:07:17.972Z,15.70
2023-05-02T04:22:23.645Z,15.00
2023-05-02T04:37:33.281Z,15.70
2023-05-02T04:52:38.559Z,15.70
2023-05-02T05:07:43.116Z,15.10
2023-05-02T05:22:48.661Z,15.60
2023-05-02T05:37:53.282Z,15.70
2023-05-02T05:52:58.357Z,15.80
2023-05-02T06:08:03.134Z,15.80
2023-05-02T06:23:07.593Z,15.70
2023-05-02T06:38:12.051Z,15.50
2023-05-02T06:53:16.833Z,14.80
2023-05-02T07:08:22.560Z,15.30
2023-05-02T07:23:26.979Z,15.00
2023-05-02T07:38:31.388Z,15.30
2023-05-02T07:53:36.118Z,15.40
2023-05-02T08:08:40.597Z,15.20
2023-05-02T08:23:46.231Z,16.20
2023-05-02T08:38:50.536Z,16.40
2023-05-02T08:53:56.330Z,16.70
2023-05-02T09:09:02.159Z,16.80
2023-05-02T09:24:17.005Z,16.80
2023-05-02T09:39:24.759Z,16.90
2023-05-02T09:54:37.919Z,17.00
2023-05-02T10:09:45.408Z,17.10
2023-05-02T10:24:50.764Z,17.20
2023-05-02T10:39:55.713Z,17.40
2023-05-02T10:55:20.489Z,17.60
2023-05-02T11:10:29.207Z,17.70
2023-05-02T11:25:39.211Z,18.10
2023-05-02T11:40:51.845Z,18.20
2023-05-02T11:55:57.658Z,18.30
2023-05-02T12:11:02.068Z,18.60
2023-05-02T12:26:19.830Z,19.00
2023-05-02T12:41:33.393Z,19.10
2023-05-02T12:56:44.203Z,19.60
2023-05-02T13:11:49.215Z,19.90
2023-05-02T13:26:53.632Z,20.30
2023-05-02T13:41:58.076Z,21.00
2023-05-02T13:57:02.590Z,22.20
2023-05-02T14:12:07.186Z,26.10
2023-05-02T14:27:17.762Z,25.30
2023-05-02T14:42:22.633Z,27.50
2023-05-02T14:57:27.317Z,26.10
2023-05-02T15:12:31.861Z,31.10
2023-05-02T15:27:36.315Z,29.60
2023-05-02T15:42:40.930Z,30.50
2023-05-02T15:57:45.314Z,31.70
2023-05-02T16:12:49.770Z,31.20
2023-05-02T16:27:54.171Z,30.70
2023-05-02T16:42:58.954Z,29.70
2023-05-02T16:58:03.532Z,28.90
2023-05-02T17:13:08.037Z,26.90
2023-05-02T17:28:12.541Z,27.20
2023-05-02T17:43:16.898Z,24.70
2023-05-02T17:58:21.325Z,25.20
2023-05-02T18:13:25.776Z,24.90
2023-05-02T18:28:30.254Z,24.40
2023-05-02T18:43:35.322Z,23.60
2023-05-02T18:58:39.714Z,22.90
2023-05-02T19:13:44.102Z,22.30
2023-05-02T19:28:48.551Z,21.70
2023-05-02T19:43:53.226Z,21.50
2023-05-02T19:58:58.642Z,21.20
2023-05-02T20:14:03.352Z,20.90
2023-05-02T20:29:07.788Z,20.80
2023-05-02T20:44:16.903Z,20.60
2023-05-02T20:59:21.341Z,20.20
2023-05-02T21:14:26.918Z,20.10
2023-05-02T21:29:31.303Z,19.90
2023-05-02T21:44:35.737Z,19.80
2023-05-02T21:59:40.265Z,19.70
2023-05-02T22:14:45.935Z,19.60
2023-05-02T22:29:50.696Z,19.60
2023-05-02T22:44:55.140Z,19.20
2023-05-02T22:59:59.645Z,19.30
2023-05-02T23:15:04.276Z,19.10
2023-05-02T23:30:10.349Z,18.80
2023-05-02T23:45:14.772Z,18.50
